Time;durP1;ratioP1;P1;durP2;ratioP2;P2;SDS_P1;SDS_P2;PMS_P1;PMS_P2;Temp;Humidity;BMP_temperature;BMP_pressure;BME280_temperature;BME280_humidity;BME280_pressure;Samples;Min_cycle;Max_cycle;Signal;HPM_P1;HPM_P2
2023/06/22 00:01:53;;;;;;;32.28;27.48;;;;;;;;;;5054006;28;20052;-71
2023/06/22 00:04:19;;;;;;;26.92;22.77;;;;;;;;;;5053301;28;20157;-71
2023/06/22 00:06:45;;;;;;;31.02;24.70;;;;;;;;;;5050955;28;20048;-70
2023/06/22 00:09:11;;;;;;;30.98;27.42;;;;;;;;;;5054017;28;20048;-71
2023/06/22 00:11:38;;;;;;;33.97;28.27;;;;;;;;;;5051463;28;20044;-70
2023/06/22 00:14:04;;;;;;;32.20;28.67;;;;;;;;;;5052725;28;20949;-71
2023/06/22 00:16:32;;;;;;;28.08;25.08;;;;;;;;;;5054453;28;20059;-71
2023/06/22 00:19:00;;;;;;;20.40;17.77;;;;;;;;;;5052714;28;20048;-71
2023/06/22 00:21:27;;;;;;;14.35;13.00;;;;;;;;;;5050197;28;20040;-71
2023/06/22 00:23:53;;;;;;;13.55;11.25;;;;;;;;;;5048342;28;20040;-71
2023/06/22 00:26:20;;;;;;;13.25;12.15;;;;;;;;;;5047837;28;20131;-71
2023/06/22 00:28:46;;;;;;;13.27;12.07;;;;;;;;;;5050668;28;20045;-71
2023/06/22 00:31:12;;;;;;;12.85;11.68;;;;;;;;;;5047351;28;20044;-71
2023/06/22 00:33:39;;;;;;;13.30;11.55;;;;;;;;;;5049734;28;20095;-72
2023/06/22 00:36:06;;;;;;;11.75;10.68;;;;;;;;;;5046929;28;20036;-71
2023/06/22 00:38:32;;;;;;;9.02;8.30;;;;;;;;;;5051666;28;20083;-71
2023/06/22 00:40:58;;;;;;;8.60;7.90;;;;;;;;;;5051331;28;20495;-71
2023/06/22 00:43:24;;;;;;;9.15;8.35;;;;;;;;;;5049537;28;20426;-71
2023/06/22 00:45:50;;;;;;;10.82;9.82;;;;;;;;;;5047065;28;20062;-71
2023/06/22 00:48:17;;;;;;;23.92;20.55;;;;;;;;;;5044107;28;20087;-71
2023/06/22 00:50:43;;;;;;;31.70;26.42;;;;;;;;;;5046612;28;20072;-71
2023/06/22 00:53:10;;;;;;;34.97;28.67;;;;;;;;;;5048739;28;20131;-71
2023/06/22 00:55:38;;;;;;;34.53;29.38;;;;;;;;;;5047656;28;20064;-71
2023/06/22 00:58:07;;;;;;;39.20;31.95;;;;;;;;;;5044616;28;20138;-71
2023/06/22 01:00:34;;;;;;;40.53;32.75;;;;;;;;;;5051173;28;20058;-71
2023/06/22 01:03:00;;;;;;;39.58;33.28;;;;;;;;;;5049189;28;20051;-71
2023/06/22 01:05:29;;;;;;;38.45;32.55;;;;;;;;;;5044831;28;20450;-71
2023/06/22 01:07:59;;;;;;;39.45;31.70;;;;;;;;;;5046351;28;20040;-71
2023/06/22 01:10:28;;;;;;;41.25;32.03;;;;;;;;;;5047054;28;20090;-71
2023/06/22 01:13:07;;;;;;;41.45;34.65;;;;;;;;;;5045424;28;20106;-71
2023/06/22 01:15:46;;;;;;;41.08;33.65;;;;;;;;;;5051188;28;20036;-71
2023/06/22 01:18:13;;;;;;;42.85;32.97;;;;;;;;;;5052640;28;20047;-71
2023/06/22 01:20:39;;;;;;;45.17;34.15;;;;;;;;;;5053324;28;20128;-71
2023/06/22 01:23:18;;;;;;;41.33;33.30;;;;;;;;;;5052277;28;20032;-73
2023/06/22 01:25:54;;;;;;;47.35;33.92;;;;;;;;;;5049054;28;20072;-73
2023/06/22 01:28:42;;;;;;;48.53;34.63;;;;;;;;;;5051249;28;20109;-73
2023/06/22 01:31:10;;;;;;;45.45;35.00;;;;;;;;;;5052836;28;20048;-73
2023/06/22 01:33:38;;;;;;;51.42;40.25;;;;;;;;;;5050408;28;20049;-72
2023/06/22 01:36:05;;;;;;;46.45;38.33;;;;;;;;;;5058617;28;20537;-72
2023/06/22 01:38:32;;;;;;;44.55;36.08;;;;;;;;;;5067798;28;20032;-73
2023/06/22 01:40:58;;;;;;;49.20;35.60;;;;;;;;;;5067224;28;20036;-74
2023/06/22 01:43:26;;;;;;;43.65;35.40;;;;;;;;;;5059321;28;20044;-72
2023/06/22 01:45:52;;;;;;;46.33;37.25;;;;;;;;;;5054159;28;20135;-73
2023/06/22 01:48:18;;;;;;;42.65;34.42;;;;;;;;;;5052623;28;20044;-73
2023/06/22 01:50:45;;;;;;;43.95;34.50;;;;;;;;;;5052042;28;20060;-73
2023/06/22 01:53:11;;;;;;;24.48;19.92;;;;;;;;;;5049867;28;20055;-71
2023/06/22 01:55:37;;;;;;;18.50;16.27;;;;;;;;;;5051621;28;20681;-71
2023/06/22 01:58:03;;;;;;;15.02;13.45;;;;;;;;;;5047586;28;20045;-71
2023/06/22 02:00:31;;;;;;;17.75;14.48;;;;;;;;;;5049660;28;20047;-71
2023/06/22 02:03:00;;;;;;;20.60;15.60;;;;;;;;;;5050233;28;20943;-70
2023/06/22 02:05:29;;;;;;;18.60;15.27;;;;;;;;;;5048206;28;20040;-71
2023/06/22 02:08:17;;;;;;;19.02;15.65;;;;;;;;;;5049399;28;20040;-71
2023/06/22 02:10:44;;;;;;;19.63;17.00;;;;;;;;;;5047917;28;20048;-70
2023/06/22 02:13:11;;;;;;;21.70;17.73;;;;;;;;;;5047668;28;21931;-71
2023/06/22 02:15:37;;;;;;;23.90;19.92;;;;;;;;;;5045926;28;20154;-71
2023/06/22 02:18:05;;;;;;;38.20;29.15;;;;;;;;;;5045373;28;20033;-71
2023/06/22 02:20:31;;;;;;;44.10;33.67;;;;;;;;;;5043334;28;20056;-71
2023/06/22 02:22:57;;;;;;;51.15;39.40;;;;;;;;;;5046618;28;20037;-71
2023/06/22 02:25:23;;;;;;;59.03;44.65;;;;;;;;;;5043675;28;20051;-71
2023/06/22 02:27:49;;;;;;;57.80;44.00;;;;;;;;;;5044858;28;20098;-71
2023/06/22 02:30:15;;;;;;;60.88;43.38;;;;;;;;;;5042552;28;20741;-71
2023/06/22 02:32:42;;;;;;;63.38;45.33;;;;;;;;;;5044051;28;20072;-71
2023/06/22 02:35:09;;;;;;;64.35;46.08;;;;;;;;;;5047109;28;20059;-71
2023/06/22 02:37:41;;;;;;;59.72;43.88;;;;;;;;;;5048465;28;20052;-71
2023/06/22 02:40:11;;;;;;;55.88;43.92;;;;;;;;;;5052323;28;20085;-72
2023/06/22 02:42:38;;;;;;;60.05;45.60;;;;;;;;;;5048101;28;20074;-71
2023/06/22 02:45:04;;;;;;;59.78;44.28;;;;;;;;;;5051535;28;20036;-72
2023/06/22 02:47:30;;;;;;;54.65;43.30;;;;;;;;;;5049039;28;21034;-71
2023/06/22 02:49:57;;;;;;;51.30;41.55;;;;;;;;;;5048375;28;20048;-71
2023/06/22 02:52:23;;;;;;;60.95;43.13;;;;;;;;;;5047822;28;20040;-71
2023/06/22 02:54:49;;;;;;;66.95;45.95;;;;;;;;;;5047514;28;20389;-72
2023/06/22 02:57:15;;;;;;;52.22;41.42;;;;;;;;;;5048263;28;20041;-70
2023/06/22 02:59:41;;;;;;;34.22;27.98;;;;;;;;;;5048336;28;20040;-70
2023/06/22 03:02:08;;;;;;;27.70;23.45;;;;;;;;;;5047518;28;20110;-73
2023/06/22 03:04:35;;;;;;;22.55;20.17;;;;;;;;;;5049941;28;20044;-73
2023/06/22 03:07:01;;;;;;;24.17;20.05;;;;;;;;;;5049798;28;20051;-71
2023/06/22 03:09:30;;;;;;;24.45;21.63;;;;;;;;;;5047830;28;20075;-72
2023/06/22 03:11:56;;;;;;;25.20;22.50;;;;;;;;;;5049020;28;20044;-70
2023/06/22 03:14:22;;;;;;;33.08;27.48;;;;;;;;;;5046287;28;20066;-71
2023/06/22 03:16:48;;;;;;;42.03;33.58;;;;;;;;;;5045594;28;20131;-71
2023/06/22 03:19:15;;;;;;;44.65;34.95;;;;;;;;;;5046460;28;20048;-70
2023/06/22 03:21:41;;;;;;;44.63;35.53;;;;;;;;;;5046915;28;20059;-71
2023/06/22 03:24:07;;;;;;;46.83;37.17;;;;;;;;;;5046673;28;20041;-72
2023/06/22 03:26:34;;;;;;;51.42;39.60;;;;;;;;;;5045222;28;20049;-71
2023/06/22 03:29:00;;;;;;;52.38;39.47;;;;;;;;;;5048246;28;20052;-70
2023/06/22 03:31:26;;;;;;;58.42;45.40;;;;;;;;;;5049119;28;20041;-71
2023/06/22 03:33:54;;;;;;;62.40;46.10;;;;;;;;;;5049865;28;20051;-71
2023/06/22 03:36:20;;;;;;;68.05;49.47;;;;;;;;;;5051111;28;20408;-71
2023/06/22 03:38:50;;;;;;;66.05;47.75;;;;;;;;;;5049675;28;20083;-71
2023/06/22 03:41:16;;;;;;;60.33;46.97;;;;;;;;;;5049555;28;20083;-71
2023/06/22 03:43:43;;;;;;;63.40;47.67;;;;;;;;;;5051287;28;20158;-71
2023/06/22 03:46:09;;;;;;;64.72;49.60;;;;;;;;;;5052830;28;20168;-71
2023/06/22 03:48:35;;;;;;;65.90;48.47;;;;;;;;;;5051249;28;20067;-71
2023/06/22 03:51:02;;;;;;;65.03;48.10;;;;;;;;;;5050064;28;20140;-71
2023/06/22 03:53:28;;;;;;;65.60;48.65;;;;;;;;;;5050064;28;20161;-71
2023/06/22 03:55:55;;;;;;;40.40;33.33;;;;;;;;;;5049760;28;20044;-71
2023/06/22 03:58:21;;;;;;;36.60;29.33;;;;;;;;;;5051022;28;20044;-71
2023/06/22 04:00:47;;;;;;;35.92;29.90;;;;;;;;;;5046387;28;20075;-71
2023/06/22 04:03:14;;;;;;;32.60;28.42;;;;;;;;;;5048751;28;20047;-71
2023/06/22 04:05:40;;;;;;;36.38;29.55;;;;;;;;;;5049986;28;20476;-71
2023/06/22 04:08:06;;;;;;;33.30;28.08;;;;;;;;;;5046813;28;20036;-71
2023/06/22 04:10:32;;;;;;;32.83;29.20;;;;;;;;;;5049337;28;20043;-71
2023/06/22 04:12:58;;;;;;;31.42;27.65;;;;;;;;;;5048192;28;20036;-71
2023/06/22 04:15:24;;;;;;;40.17;28.52;;;;;;;;;;5048259;28;20417;-71
2023/06/22 04:17:51;;;;;;;35.92;28.65;;;;;;;;;;5048464;28;20647;-72
2023/06/22 04:20:17;;;;;;;32.17;27.75;;;;;;;;;;5046752;28;20119;-71
2023/06/22 04:22:43;;;;;;;40.17;30.05;;;;;;;;;;5049337;28;21610;-71
2023/06/22 04:25:09;;;;;;;37.17;30.33;;;;;;;;;;5046352;28;20040;-71
2023/06/22 04:27:40;;;;;;;37.95;31.48;;;;;;;;;;5049864;28;20136;-71
2023/06/22 04:30:08;;;;;;;31.20;27.67;;;;;;;;;;5048112;28;20167;-71
2023/06/22 04:32:37;;;;;;;34.60;29.38;;;;;;;;;;5042464;28;20640;-71
2023/06/22 04:35:04;;;;;;;34.20;29.50;;;;;;;;;;5046440;28;20115;-71
2023/06/22 04:37:31;;;;;;;41.50;34.03;;;;;;;;;;5046390;28;20047;-71
2023/06/22 04:39:57;;;;;;;38.42;31.02;;;;;;;;;;5046128;28;20055;-71
2023/06/22 04:42:23;;;;;;;30.85;26.88;;;;;;;;;;5047172;28;20528;-71
2023/06/22 04:44:49;;;;;;;37.35;31.33;;;;;;;;;;5044954;28;20056;-71
2023/06/22 04:47:15;;;;;;;32.20;28.63;;;;;;;;;;5045788;28;22300;-71
2023/06/22 04:49:43;;;;;;;32.17;26.38;;;;;;;;;;5043717;28;20056;-71
2023/06/22 04:52:11;;;;;;;32.80;26.92;;;;;;;;;;5043337;28;20265;-71
2023/06/22 04:54:38;;;;;;;35.03;29.83;;;;;;;;;;5043941;28;20511;-71
2023/06/22 04:57:09;;;;;;;46.42;37.28;;;;;;;;;;5044219;28;20182;-71
2023/06/22 04:59:35;;;;;;;56.80;43.22;;;;;;;;;;5045671;28;20110;-71
2023/06/22 05:02:02;;;;;;;45.92;39.25;;;;;;;;;;5043657;28;20799;-71
2023/06/22 05:04:31;;;;;;;58.78;43.42;;;;;;;;;;5042011;28;20162;-71
2023/06/22 05:06:57;;;;;;;55.03;41.47;;;;;;;;;;5045337;28;20076;-71
2023/06/22 05:09:27;;;;;;;56.45;42.33;;;;;;;;;;5047463;28;20625;-71
2023/06/22 05:11:53;;;;;;;49.42;40.47;;;;;;;;;;5047579;28;20048;-72
2023/06/22 05:14:19;;;;;;;47.10;39.08;;;;;;;;;;5044403;28;20045;-71
2023/06/22 05:16:46;;;;;;;43.50;37.00;;;;;;;;;;5049589;28;20051;-71
2023/06/22 05:19:12;;;;;;;47.88;38.00;;;;;;;;;;5045569;28;20045;-71
2023/06/22 05:21:38;;;;;;;47.38;36.90;;;;;;;;;;5047398;28;20413;-72
2023/06/22 05:24:05;;;;;;;44.88;34.88;;;;;;;;;;5047513;28;20768;-71
2023/06/22 05:26:32;;;;;;;43.70;36.13;;;;;;;;;;5041022;28;20052;-72
2023/06/22 05:28:58;;;;;;;45.28;35.50;;;;;;;;;;5046750;28;20094;-72
2023/06/22 05:31:24;;;;;;;42.95;34.80;;;;;;;;;;5045987;28;20692;-72
2023/06/22 05:33:52;;;;;;;38.03;32.75;;;;;;;;;;5047325;28;20139;-72
2023/06/22 05:36:23;;;;;;;39.95;33.20;;;;;;;;;;5044439;28;20066;-71
2023/06/22 05:38:49;;;;;;;44.13;31.75;;;;;;;;;;5048607;28;20658;-71
2023/06/22 05:41:15;;;;;;;38.97;31.50;;;;;;;;;;5049852;28;20736;-72
2023/06/22 05:43:42;;;;;;;38.38;30.92;;;;;;;;;;5051589;28;20063;-71
2023/06/22 05:46:08;;;;;;;40.97;31.85;;;;;;;;;;5048939;28;20139;-71
2023/06/22 05:48:34;;;;;;;42.25;30.05;;;;;;;;;;5047441;28;20140;-72
2023/06/22 05:51:00;;;;;;;38.90;31.70;;;;;;;;;;5048778;28;20068;-72
2023/06/22 05:53:26;;;;;;;43.30;31.48;;;;;;;;;;5042192;28;20133;-72
2023/06/22 05:55:52;;;;;;;37.15;30.27;;;;;;;;;;5043559;28;20472;-72
2023/06/22 05:58:18;;;;;;;35.72;30.40;;;;;;;;;;5044311;28;20051;-72
2023/06/22 06:00:46;;;;;;;36.83;28.38;;;;;;;;;;5042669;28;20665;-72
2023/06/22 06:03:12;;;;;;;35.97;29.85;;;;;;;;;;5041134;28;20141;-72
2023/06/22 06:05:38;;;;;;;34.45;28.90;;;;;;;;;;5042903;28;20050;-72
2023/06/22 06:08:06;;;;;;;37.40;29.48;;;;;;;;;;5047302;28;20040;-72
2023/06/22 06:10:32;;;;;;;37.20;29.50;;;;;;;;;;5047647;28;20044;-72
2023/06/22 06:12:59;;;;;;;37.65;29.77;;;;;;;;;;5050368;28;20151;-72
2023/06/22 06:15:25;;;;;;;38.38;27.77;;;;;;;;;;5048595;28;20048;-72
2023/06/22 06:17:52;;;;;;;34.67;27.08;;;;;;;;;;5045190;28;20060;-72
2023/06/22 06:20:25;;;;;;;33.45;26.80;;;;;;;;;;5045802;28;20130;-72
2023/06/22 06:22:52;;;;;;;32.47;25.95;;;;;;;;;;5047014;28;20044;-66
2023/06/22 06:25:19;;;;;;;37.83;26.70;;;;;;;;;;5041698;28;20044;-66
2023/06/22 06:27:49;;;;;;;34.17;28.23;;;;;;;;;;5046562;28;20048;-66
2023/06/22 06:30:16;;;;;;;37.03;28.42;;;;;;;;;;5046395;28;20052;-66
2023/06/22 06:32:42;;;;;;;34.75;26.85;;;;;;;;;;5045795;28;20044;-66
2023/06/22 06:35:10;;;;;;;28.08;24.02;;;;;;;;;;5043692;28;20107;-66
2023/06/22 06:37:37;;;;;;;26.08;22.27;;;;;;;;;;5046799;28;20085;-66
2023/06/22 06:40:05;;;;;;;22.77;19.58;;;;;;;;;;5048547;28;20059;-66
2023/06/22 06:42:31;;;;;;;25.80;19.27;;;;;;;;;;5047496;28;21618;-66
2023/06/22 06:44:57;;;;;;;21.42;18.77;;;;;;;;;;5049020;28;20040;-66
2023/06/22 06:47:23;;;;;;;21.98;16.75;;;;;;;;;;5046426;28;20498;-66
2023/06/22 06:49:49;;;;;;;21.73;17.60;;;;;;;;;;5046511;28;20130;-66
2023/06/22 06:52:15;;;;;;;23.95;19.10;;;;;;;;;;5047869;28;20032;-66
2023/06/22 06:54:41;;;;;;;26.67;19.42;;;;;;;;;;5045195;28;20222;-66
2023/06/22 06:57:10;;;;;;;25.38;19.30;;;;;;;;;;5046120;28;20043;-66
2023/06/22 06:59:36;;;;;;;21.73;19.08;;;;;;;;;;5045588;28;20166;-66
2023/06/22 07:02:02;;;;;;;18.98;16.98;;;;;;;;;;5049015;28;20135;-67
2023/06/22 07:04:28;;;;;;;21.23;18.52;;;;;;;;;;5051036;28;20051;-66
2023/06/22 07:06:54;;;;;;;23.45;19.80;;;;;;;;;;5051716;28;20145;-67
2023/06/22 07:09:20;;;;;;;24.25;18.90;;;;;;;;;;5049925;28;20209;-66
2023/06/22 07:11:46;;;;;;;23.65;18.63;;;;;;;;;;5047716;28;20048;-66
2023/06/22 07:14:13;;;;;;;19.42;16.38;;;;;;;;;;5050869;28;20369;-66
2023/06/22 07:16:39;;;;;;;17.58;13.75;;;;;;;;;;5053296;28;20110;-66
2023/06/22 07:19:05;;;;;;;17.35;14.23;;;;;;;;;;5052912;28;20497;-66
2023/06/22 07:21:31;;;;;;;18.35;14.90;;;;;;;;;;5053019;28;20044;-66
2023/06/22 07:23:57;;;;;;;22.23;17.13;;;;;;;;;;5050150;28;20044;-66
2023/06/22 07:26:23;;;;;;;18.13;15.88;;;;;;;;;;5053380;28;20404;-66
2023/06/22 07:28:50;;;;;;;21.77;13.82;;;;;;;;;;5032805;28;20053;-66
2023/06/22 07:31:16;;;;;;;20.50;15.77;;;;;;;;;;5047086;28;20047;-66
2023/06/22 07:33:42;;;;;;;13.70;12.07;;;;;;;;;;5040708;28;20037;-66
2023/06/22 07:36:09;;;;;;;14.10;11.90;;;;;;;;;;5053640;28;20515;-66
2023/06/22 07:38:35;;;;;;;11.60;10.40;;;;;;;;;;5053206;28;20041;-66
2023/06/22 07:41:02;;;;;;;11.88;9.25;;;;;;;;;;5028842;28;21160;-73
2023/06/22 07:43:29;;;;;;;13.45;9.75;;;;;;;;;;5048920;28;20119;-72
2023/06/22 07:45:56;;;;;;;11.43;9.07;;;;;;;;;;5050817;28;20052;-72
2023/06/22 07:48:22;;;;;;;13.73;9.63;;;;;;;;;;5047790;28;20045;-72
2023/06/22 07:50:48;;;;;;;10.88;9.27;;;;;;;;;;5046835;28;20072;-71
2023/06/22 07:53:14;;;;;;;10.93;9.18;;;;;;;;;;5049558;28;20046;-72
2023/06/22 07:55:40;;;;;;;11.00;9.65;;;;;;;;;;5052453;28;20063;-72
2023/06/22 07:58:06;;;;;;;13.02;10.25;;;;;;;;;;5051801;28;20047;-72
2023/06/22 08:00:34;;;;;;;11.65;9.88;;;;;;;;;;5048135;28;20053;-72
2023/06/22 08:03:00;;;;;;;25.20;11.15;;;;;;;;;;5048658;28;20048;-72
2023/06/22 08:05:26;;;;;;;11.35;9.80;;;;;;;;;;5044886;28;20040;-73
2023/06/22 08:07:53;;;;;;;12.13;10.20;;;;;;;;;;5052254;28;20040;-72
2023/06/22 08:10:19;;;;;;;9.48;8.57;;;;;;;;;;5054985;28;20048;-73
2023/06/22 08:12:45;;;;;;;9.88;8.18;;;;;;;;;;5046194;28;20353;-72
2023/06/22 08:15:11;;;;;;;10.68;8.15;;;;;;;;;;5056082;28;20105;-72
2023/06/22 08:17:38;;;;;;;12.13;7.82;;;;;;;;;;5052637;28;20760;-72
2023/06/22 08:20:11;;;;;;;11.07;8.45;;;;;;;;;;5053068;28;20048;-72
2023/06/22 08:22:38;;;;;;;;;;;;;;;;;;5052629;28;20622;-71
2023/06/22 08:25:04;;;;;;;11.13;7.95;;;;;;;;;;5052272;28;19931;-72
2023/06/22 08:27:34;;;;;;;10.18;8.13;;;;;;;;;;5050413;28;20074;-72
2023/06/22 08:30:00;;;;;;;10.13;7.25;;;;;;;;;;5050078;28;20048;-72
2023/06/22 08:32:29;;;;;;;14.55;6.90;;;;;;;;;;5049941;28;20044;-73
2023/06/22 08:34:56;;;;;;;9.10;7.05;;;;;;;;;;5050990;28;20779;-72
2023/06/22 08:37:30;;;;;;;11.35;6.53;;;;;;;;;;5052673;28;20476;-72
2023/06/22 08:39:57;;;;;;;15.43;7.38;;;;;;;;;;5053392;28;20408;-72
2023/06/22 08:42:24;;;;;;;9.95;7.55;;;;;;;;;;5051417;28;20040;-72
2023/06/22 08:44:51;;;;;;;9.38;7.43;;;;;;;;;;5050140;28;20052;-72
2023/06/22 08:47:17;;;;;;;8.05;7.00;;;;;;;;;;5051104;28;20044;-72
2023/06/22 08:49:43;;;;;;;12.75;7.10;;;;;;;;;;5053289;28;20129;-73
2023/06/22 08:52:09;;;;;;;11.80;7.40;;;;;;;;;;5050209;28;20127;-72
2023/06/22 08:54:35;;;;;;;6.68;5.78;;;;;;;;;;5047666;28;20048;-72
2023/06/22 08:57:02;;;;;;;15.18;7.38;;;;;;;;;;5052584;28;20032;-73
2023/06/22 08:59:28;;;;;;;7.57;5.90;;;;;;;;;;5049553;28;20036;-73
2023/06/22 09:01:54;;;;;;;7.88;5.75;;;;;;;;;;5050872;28;20067;-72
2023/06/22 09:04:22;;;;;;;10.20;6.15;;;;;;;;;;5052523;28;20052;-72
2023/06/22 09:06:49;;;;;;;8.68;5.90;;;;;;;;;;5050510;28;20036;-72
2023/06/22 09:09:16;;;;;;;7.68;5.88;;;;;;;;;;5045844;28;20424;-72
2023/06/22 09:11:42;;;;;;;7.18;6.32;;;;;;;;;;5053591;28;20039;-72
2023/06/22 09:14:09;;;;;;;9.15;6.53;;;;;;;;;;5053444;28;20039;-72
2023/06/22 09:16:35;;;;;;;7.18;5.93;;;;;;;;;;5047538;28;20431;-73
2023/06/22 09:19:01;;;;;;;9.10;7.15;;;;;;;;;;5049898;28;20130;-73
2023/06/22 09:21:27;;;;;;;8.82;6.45;;;;;;;;;;5044102;28;20064;-73
2023/06/22 09:23:53;;;;;;;11.02;6.60;;;;;;;;;;5051115;28;20055;-72
2023/06/22 09:26:19;;;;;;;8.55;5.97;;;;;;;;;;5051182;28;20048;-72
2023/06/22 09:28:46;;;;;;;11.38;6.32;;;;;;;;;;5049299;28;20051;-73
2023/06/22 09:31:12;;;;;;;8.50;6.20;;;;;;;;;;5032412;28;20063;-72
2023/06/22 09:33:38;;;;;;;12.65;6.00;;;;;;;;;;5050221;28;20037;-74
2023/06/22 09:36:07;;;;;;;6.60;5.78;;;;;;;;;;5049300;28;20044;-72
2023/06/22 09:38:35;;;;;;;9.10;6.57;;;;;;;;;;5048324;28;20048;-73
2023/06/22 09:41:01;;;;;;;9.38;6.28;;;;;;;;;;5052399;28;20444;-72
2023/06/22 09:43:28;;;;;;;6.70;6.00;;;;;;;;;;5048995;28;20044;-73
2023/06/22 09:45:54;;;;;;;8.75;5.80;;;;;;;;;;5051893;28;20036;-73
2023/06/22 09:48:20;;;;;;;7.47;5.03;;;;;;;;;;5051216;28;20060;-73
2023/06/22 09:50:46;;;;;;;7.47;5.88;;;;;;;;;;5046010;28;20425;-73
2023/06/22 09:53:12;;;;;;;8.45;5.40;;;;;;;;;;5055934;28;20118;-73
2023/06/22 09:55:38;;;;;;;8.65;6.70;;;;;;;;;;5055915;28;20040;-73
2023/06/22 09:58:04;;;;;;;9.73;5.90;;;;;;;;;;5055116;28;20036;-74
2023/06/22 10:00:30;;;;;;;9.07;6.32;;;;;;;;;;5055775;28;20480;-73
2023/06/22 10:02:57;;;;;;;6.13;5.53;;;;;;;;;;5039245;28;20176;-73
2023/06/22 10:05:23;;;;;;;6.72;5.97;;;;;;;;;;5056836;28;20044;-73
2023/06/22 10:07:49;;;;;;;8.55;6.65;;;;;;;;;;5056558;28;20053;-73
2023/06/22 10:10:15;;;;;;;10.98;6.88;;;;;;;;;;5055300;28;20055;-73
2023/06/22 10:12:46;;;;;;;5.97;5.18;;;;;;;;;;5056328;28;20647;-73
2023/06/22 10:15:13;;;;;;;10.23;6.80;;;;;;;;;;5057324;28;20033;-73
2023/06/22 10:17:39;;;;;;;8.77;6.32;;;;;;;;;;5053799;28;20098;-73
2023/06/22 10:20:13;;;;;;;7.78;5.18;;;;;;;;;;5055018;28;20056;-73
2023/06/22 10:22:42;;;;;;;8.00;5.50;;;;;;;;;;5056891;28;20040;-73
2023/06/22 10:25:09;;;;;;;10.07;4.82;;;;;;;;;;5056831;28;20050;-73
2023/06/22 10:27:35;;;;;;;6.15;4.70;;;;;;;;;;5057179;28;20045;-73
2023/06/22 10:30:01;;;;;;;6.57;5.05;;;;;;;;;;5056472;28;20127;-73
2023/06/22 10:32:28;;;;;;;5.25;4.40;;;;;;;;;;5054084;28;20033;-74
2023/06/22 10:34:54;;;;;;;6.63;5.13;;;;;;;;;;5049776;28;20078;-72
2023/06/22 10:37:20;;;;;;;6.05;4.80;;;;;;;;;;5048728;28;20082;-73
2023/06/22 10:39:47;;;;;;;4.93;4.25;;;;;;;;;;5040409;28;20072;-74
2023/06/22 10:42:13;;;;;;;5.70;4.18;;;;;;;;;;5045872;28;20408;-72
2023/06/22 10:44:41;;;;;;;5.00;3.25;;;;;;;;;;5049409;28;20159;-72
2023/06/22 10:47:07;;;;;;;5.10;3.28;;;;;;;;;;5048644;28;20613;-73
2023/06/22 10:49:33;;;;;;;6.43;3.35;;;;;;;;;;5055426;28;20106;-72
2023/06/22 10:51:59;;;;;;;4.25;3.00;;;;;;;;;;5050384;28;20058;-72
2023/06/22 10:54:25;;;;;;;3.25;2.40;;;;;;;;;;5053716;28;20071;-72
2023/06/22 10:56:51;;;;;;;5.57;3.17;;;;;;;;;;5055378;28;20119;-73
2023/06/22 10:59:17;;;;;;;6.22;3.35;;;;;;;;;;5055653;28;20048;-73
2023/06/22 11:01:43;;;;;;;4.47;2.90;;;;;;;;;;5052198;28;20559;-73
2023/06/22 11:04:10;;;;;;;5.25;3.00;;;;;;;;;;5055553;28;20253;-73
2023/06/22 11:06:36;;;;;;;3.85;2.90;;;;;;;;;;5052750;28;20044;-72
2023/06/22 11:09:03;;;;;;;3.65;2.60;;;;;;;;;;5053218;28;20470;-73
2023/06/22 11:11:29;;;;;;;3.47;2.75;;;;;;;;;;5054151;28;20119;-73
2023/06/22 11:13:55;;;;;;;4.53;2.95;;;;;;;;;;5048103;28;20504;-72
2023/06/22 11:16:21;;;;;;;3.90;3.28;;;;;;;;;;5046508;28;20099;-72
2023/06/22 11:18:48;;;;;;;3.92;3.03;;;;;;;;;;5051431;28;20064;-74
2023/06/22 11:21:14;;;;;;;3.38;2.45;;;;;;;;;;5050131;28;20048;-74
2023/06/22 11:23:40;;;;;;;3.60;2.45;;;;;;;;;;5050798;28;20036;-74
2023/06/22 11:26:06;;;;;;;4.05;3.20;;;;;;;;;;5052702;28;20040;-74
2023/06/22 11:28:32;;;;;;;8.43;3.45;;;;;;;;;;5047013;28;20051;-73
2023/06/22 11:30:58;;;;;;;4.95;3.33;;;;;;;;;;5047250;28;20155;-73
2023/06/22 11:33:25;;;;;;;10.30;3.20;;;;;;;;;;5014610;28;20052;-73
2023/06/22 11:35:51;;;;;;;5.38;3.00;;;;;;;;;;5047029;28;20131;-73
2023/06/22 11:38:17;;;;;;;4.13;2.80;;;;;;;;;;5048766;28;20044;-73
2023/06/22 11:40:43;;;;;;;6.57;3.53;;;;;;;;;;5047966;28;20579;-72
2023/06/22 11:43:09;;;;;;;6.65;3.05;;;;;;;;;;5051294;28;20068;-72
2023/06/22 11:45:35;;;;;;;4.65;3.47;;;;;;;;;;5048743;28;20036;-73
2023/06/22 11:48:01;;;;;;;5.32;2.78;;;;;;;;;;5055340;28;20056;-73
2023/06/22 11:50:29;;;;;;;3.58;2.30;;;;;;;;;;5047188;28;20048;-72
2023/06/22 11:52:56;;;;;;;6.97;3.75;;;;;;;;;;5053625;28;20121;-72
2023/06/22 11:55:22;;;;;;;6.65;3.28;;;;;;;;;;5051077;28;20036;-73
2023/06/22 11:57:55;;;;;;;5.18;2.67;;;;;;;;;;5049538;28;20613;-72
2023/06/22 12:00:23;;;;;;;4.75;2.78;;;;;;;;;;5048246;28;20040;-82
2023/06/22 12:02:51;;;;;;;4.82;2.50;;;;;;;;;;5033773;28;20464;-73
2023/06/22 12:05:18;;;;;;;3.88;2.83;;;;;;;;;;5047264;28;20044;-72
2023/06/22 12:07:44;;;;;;;3.20;2.90;;;;;;;;;;5046770;28;20040;-72
2023/06/22 12:10:11;;;;;;;4.15;2.90;;;;;;;;;;5047573;28;21515;-72
2023/06/22 12:12:37;;;;;;;5.13;2.50;;;;;;;;;;5050539;28;20121;-72
2023/06/22 12:15:03;;;;;;;3.20;2.35;;;;;;;;;;5048705;28;20197;-72
2023/06/22 12:17:30;;;;;;;4.97;2.70;;;;;;;;;;5048597;28;20063;-73
2023/06/22 12:19:56;;;;;;;3.67;2.75;;;;;;;;;;5046543;28;20040;-74
2023/06/22 12:22:22;;;;;;;3.55;2.17;;;;;;;;;;5052205;28;20032;-73
2023/06/22 12:24:48;;;;;;;5.55;2.95;;;;;;;;;;5053387;28;20047;-73
2023/06/22 12:27:16;;;;;;;11.38;2.70;;;;;;;;;;5054883;28;20032;-72
2023/06/22 12:29:43;;;;;;;4.15;2.33;;;;;;;;;;5053999;28;20106;-73
2023/06/22 12:32:09;;;;;;;3.38;2.85;;;;;;;;;;5055041;28;20653;-73
2023/06/22 12:34:35;;;;;;;3.55;2.00;;;;;;;;;;5055972;28;20129;-73
2023/06/22 12:37:01;;;;;;;5.53;2.20;;;;;;;;;;5056242;28;20189;-73
2023/06/22 12:39:28;;;;;;;4.95;2.30;;;;;;;;;;5055603;28;20048;-73
2023/06/22 12:41:54;;;;;;;2.83;2.35;;;;;;;;;;5056148;28;20381;-72
2023/06/22 12:44:20;;;;;;;4.18;2.47;;;;;;;;;;5057303;28;20141;-73
2023/06/22 12:46:46;;;;;;;3.58;2.10;;;;;;;;;;5055996;28;20040;-73
2023/06/22 12:49:12;;;;;;;4.70;3.03;;;;;;;;;;5055738;28;20508;-73
2023/06/22 12:51:42;;;;;;;7.32;2.72;;;;;;;;;;5054711;28;20067;-73
2023/06/22 12:54:08;;;;;;;5.38;2.72;;;;;;;;;;5055504;28;20040;-73
2023/06/22 12:56:34;;;;;;;4.50;2.80;;;;;;;;;;5055914;28;20033;-72
2023/06/22 12:59:03;;;;;;;5.60;2.75;;;;;;;;;;5055363;28;20123;-73
2023/06/22 13:01:32;;;;;;;4.72;2.45;;;;;;;;;;5031854;28;20052;-73
2023/06/22 13:03:59;;;;;;;3.55;2.58;;;;;;;;;;5053543;28;20061;-73
2023/06/22 13:06:25;;;;;;;4.05;2.38;;;;;;;;;;5051059;28;20040;-72
2023/06/22 13:08:51;;;;;;;3.42;2.30;;;;;;;;;;5054673;28;20037;-72
2023/06/22 13:11:17;;;;;;;3.65;2.45;;;;;;;;;;5054724;28;20040;-73
2023/06/22 13:13:44;;;;;;;3.83;2.28;;;;;;;;;;5053182;28;20044;-73
2023/06/22 13:16:10;;;;;;;3.38;2.55;;;;;;;;;;5053314;28;20556;-73
2023/06/22 13:18:36;;;;;;;3.00;2.33;;;;;;;;;;5054486;28;20039;-73
2023/06/22 13:21:02;;;;;;;5.80;2.50;;;;;;;;;;5054145;28;20147;-73
2023/06/22 13:23:29;;;;;;;3.45;2.38;;;;;;;;;;5051949;28;20056;-72
2023/06/22 13:25:55;;;;;;;4.35;2.60;;;;;;;;;;5053154;28;20504;-72
2023/06/22 13:28:21;;;;;;;2.50;2.08;;;;;;;;;;5054423;28;20041;-72
2023/06/22 13:30:47;;;;;;;4.07;2.33;;;;;;;;;;5054627;28;20223;-73
2023/06/22 13:33:14;;;;;;;4.60;2.20;;;;;;;;;;5055059;28;20041;-73
2023/06/22 13:35:42;;;;;;;3.90;2.08;;;;;;;;;;5052644;28;20041;-74
2023/06/22 13:38:09;;;;;;;6.93;2.40;;;;;;;;;;5054053;28;20037;-72
2023/06/22 13:40:35;;;;;;;5.15;2.53;;;;;;;;;;5054435;28;20051;-73
2023/06/22 13:43:01;;;;;;;3.78;2.20;;;;;;;;;;5053343;28;20044;-72
2023/06/22 13:45:27;;;;;;;9.95;2.20;;;;;;;;;;5051522;28;20053;-73
2023/06/22 13:47:53;;;;;;;4.28;2.13;;;;;;;;;;5053346;28;20055;-72
2023/06/22 13:50:19;;;;;;;3.60;2.00;;;;;;;;;;5053906;28;20587;-72
2023/06/22 13:52:45;;;;;;;4.07;1.90;;;;;;;;;;5053693;28;20071;-72
2023/06/22 13:55:14;;;;;;;3.20;2.20;;;;;;;;;;5053870;28;20159;-72
2023/06/22 13:57:40;;;;;;;4.60;2.30;;;;;;;;;;5052855;28;20078;-72
2023/06/22 14:00:08;;;;;;;4.55;1.95;;;;;;;;;;5053937;28;20040;-72
2023/06/22 14:02:34;;;;;;;2.30;2.10;;;;;;;;;;5051940;28;20788;-73
2023/06/22 14:05:00;;;;;;;2.38;1.92;;;;;;;;;;5053773;28;20048;-73
2023/06/22 14:07:26;;;;;;;6.57;2.35;;;;;;;;;;5052992;28;20040;-73
2023/06/22 14:09:52;;;;;;;6.35;2.45;;;;;;;;;;5053129;28;20520;-73
2023/06/22 14:12:18;;;;;;;3.80;2.08;;;;;;;;;;5053227;28;20032;-72
2023/06/22 14:14:45;;;;;;;3.58;2.10;;;;;;;;;;5053159;28;20041;-73
2023/06/22 14:17:11;;;;;;;3.38;2.03;;;;;;;;;;5049265;28;20112;-72
2023/06/22 14:19:37;;;;;;;3.58;1.70;;;;;;;;;;5052941;28;20496;-72
2023/06/22 14:22:03;;;;;;;3.50;2.00;;;;;;;;;;5053869;28;20037;-73
2023/06/22 14:24:29;;;;;;;2.83;1.60;;;;;;;;;;5053119;28;20785;-72
2023/06/22 14:26:56;;;;;;;3.28;1.88;;;;;;;;;;5052924;28;20527;-72